Lowry, MN

5:40 AM CDT on September 19, 2014 (GMT -0500)
Chandler | Change Station
CLOSE
Current Station
Airport
Location: Alexandria,
Elevation: 1424 ft
Nearby Weather Stations

Elev 1424 ft 45.87 °N, 95.39 °W | Updated 47 minutes ago

Overcast
Overcast
60 °F
Feels Like 60 °F
N
16
Wind Variable Wind from South

Today
High -- | Low -- °F
--% Chance of Precip.
Yesterday
High -- | Low -- °F
Precip. -- in
7:05 AM 7:25 PM
Waning Crescent, 20% visible
Pressure 29.83 in
Visibility 10.0 miles
Clouds Mostly Cloudy 3600 ft
Overcast 4300 ft
Dew Point 53 °F
Humidity 78%
Rainfall 0.00 in
Snow Depth Not available.
UV 0 out of 12
Pollen 3.60 out of 12
Air Quality Not available.
Flu Activity Not available.
METAR KAXN 190953Z AUTO 18014KT 10SM BKN036 OVC043 16/12 A2984 RMK AO2 SLP100 T01560117

More Conditions Fewer Conditions

Pressure 29.83 in
Visibility 10.0 miles
Clouds Mostly Cloudy 3600 ft
Overcast 4300 ft
Dew Point 53 °F
Humidity 78%
Rainfall 0.00 in
Snow Depth Not available.
UV 0 out of 12
Pollen 3.60 out of 12
Air Quality Not available.
Flu Activity Not available.
METAR KAXN 190953Z AUTO 18014KT 10SM BKN036 OVC043 16/12 A2984 RMK AO2 SLP100 T01560117

More Conditions Fewer Conditions

10-Day Weather Forecast

Almanac

Astronomy

Sep. 19, 2014 Rise Set
Actual Time 7:05 AM CDT 7:25 PM CDT
Civil Twilight 6:35 AM CDT 7:55 PM CDT
Nautical Twilight 6:00 AM CDT 8:30 PM CDT
Astronomical Twilight 5:24 AM CDT 9:06 PM CDT
Moon 2:41 AM CDT 5:03 PM CDT
Length of Visible Light 13h 19m
Length of Day
12h 20m
Tomorrow will be 3m 12s shorter.
Waning Crescent, 20% of the Moon is Illuminated
Today
Waning Crescent
Sep 24
New
Oct 1
First Quarter
Oct 8
Full
Oct 15
Last Quarter

Today's Extremes

State Highs State Lows

Community

WunderPhotos

Upload Photos

1,754,591 photos uploaded!

Nearby

Snow Depth

Station Depth Elevation
No new snow has been reported.

Earthquake Activity

City Distance Mag. Time & Date
No recent earthquake activity has been reported nearby.
Minimum magnitude displayed is 2.5.

Coastal Water Temperatures

Place Temperature
No Stations Reporting

Nearby Weather Stations